Time;durP1;ratioP1;P1;durP2;ratioP2;P2;SDS_P1;SDS_P2;PMS_P1;PMS_P2;Temp;Humidity;BMP_temperature;BMP_pressure;BME280_temperature;BME280_humidity;BME280_pressure;Samples;Min_cycle;Max_cycle;Signal;HPM_P1;HPM_P2
2022/04/24 00:01:49;;;;;;;1.27;1.17;;;19.30;69.40;;;;;;5119711;27;45229;-82
2022/04/24 00:04:16;;;;;;;1.48;1.38;;;19.20;69.50;;;;;;5122460;27;46924;-83
2022/04/24 00:06:46;;;;;;;1.65;1.45;;;19.30;69.20;;;;;;5121984;27;45362;-82
2022/04/24 00:09:13;;;;;;;2.53;1.60;;;19.30;68.90;;;;;;5121493;27;45341;-82
2022/04/24 00:11:40;;;;;;;1.50;1.30;;;19.30;69.00;;;;;;5120206;27;45364;-82
2022/04/24 00:14:10;;;;;;;1.40;1.30;;;19.20;69.10;;;;;;5122609;27;46646;-82
2022/04/24 00:16:37;;;;;;;1.85;1.40;;;19.20;69.50;;;;;;5121329;27;45185;-82
2022/04/24 00:19:04;;;;;;;1.80;1.35;;;19.20;69.30;;;;;;5116496;27;45595;-83
2022/04/24 00:21:31;;;;;;;1.85;1.27;;;19.20;68.50;;;;;;5124933;27;45422;-83
2022/04/24 00:24:00;;;;;;;1.55;1.27;;;19.20;68.40;;;;;;5129543;27;46568;-82
2022/04/24 00:26:27;;;;;;;1.90;1.20;;;19.20;69.00;;;;;;5128003;27;45333;-82
2022/04/24 00:28:54;;;;;;;1.80;1.40;;;19.20;68.90;;;;;;5120904;27;45290;-82
2022/04/24 00:31:21;;;;;;;1.63;1.20;;;19.10;69.30;;;;;;5128485;27;45193;-82
2022/04/24 00:33:48;;;;;;;1.88;1.42;;;19.20;70.10;;;;;;5123685;27;46336;-82
2022/04/24 00:36:15;;;;;;;1.90;1.40;;;19.10;69.80;;;;;;5125685;27;46585;-82
2022/04/24 00:38:42;;;;;;;1.10;1.00;;;19.10;69.30;;;;;;5128705;27;45399;-81
2022/04/24 00:41:10;;;;;;;1.67;1.30;;;19.10;68.60;;;;;;5128919;27;45248;-81
2022/04/24 00:43:37;;;;;;;1.33;1.23;;;19.20;68.90;;;;;;5122476;27;48157;-81
2022/04/24 00:46:12;;;;;;;1.80;1.38;;;19.20;68.80;;;;;;5122383;27;45341;-81
2022/04/24 00:48:40;;;;;;;3.00;1.27;;;19.20;68.70;;;;;;5119922;27;45458;-81
2022/04/24 00:51:07;;;;;;;3.83;1.50;;;19.20;68.50;;;;;;5118482;27;45434;-81
2022/04/24 00:53:34;;;;;;;1.35;1.13;;;19.20;68.60;;;;;;5121743;27;47639;-81
2022/04/24 00:56:01;;;;;;;1.55;1.23;;;19.20;68.40;;;;;;5126522;27;45222;-81
2022/04/24 00:58:30;;;;;;;1.73;1.30;;;19.20;68.20;;;;;;5124707;27;45222;-81
2022/04/24 01:00:57;;;;;;;1.58;1.40;;;19.20;68.50;;;;;;5126048;27;45470;-81
2022/04/24 01:03:25;;;;;;;1.73;1.30;;;19.20;68.20;;;;;;5126753;27;47830;-81
2022/04/24 01:05:52;;;;;;;1.25;1.15;;;19.20;68.40;;;;;;5126625;27;45292;-81
2022/04/24 01:08:18;;;;;;;1.58;1.33;;;19.20;68.20;;;;;;5129120;27;45194;-81
2022/04/24 01:10:45;;;;;;;1.65;1.20;;;19.20;68.20;;;;;;5124388;27;45270;-81
2022/04/24 01:13:12;;;;;;;1.40;1.30;;;19.10;67.90;;;;;;5128369;27;45310;-81
2022/04/24 01:15:40;;;;;;;2.03;1.35;;;19.10;67.90;;;;;;5128894;27;45231;-81
2022/04/24 01:18:08;;;;;;;1.42;1.30;;;19.10;67.60;;;;;;5130349;27;45262;-81
2022/04/24 01:20:36;;;;;;;2.20;1.48;;;19.10;67.70;;;;;;5125603;27;45529;-81
2022/04/24 01:23:02;;;;;;;1.60;1.20;;;19.10;67.50;;;;;;5127114;27;46634;-80
2022/04/24 01:25:29;;;;;;;0.95;0.88;;;19.10;68.00;;;;;;5129442;27;45083;-81
2022/04/24 01:27:56;;;;;;;1.23;1.02;;;19.20;67.70;;;;;;5129884;27;45181;-81
2022/04/24 01:30:23;;;;;;;1.33;1.23;;;19.20;67.80;;;;;;5124683;27;45626;-81
2022/04/24 01:32:50;;;;;;;1.30;1.20;;;19.20;67.40;;;;;;5124765;27;46600;-81
2022/04/24 01:35:18;;;;;;;1.40;1.10;;;19.20;67.40;;;;;;5126011;27;45247;-81
2022/04/24 01:37:46;;;;;;;1.30;1.20;;;19.20;67.40;;;;;;5126671;27;45162;-81
2022/04/24 01:40:13;;;;;;;1.42;1.15;;;19.20;67.50;;;;;;5127042;27;45213;-81
2022/04/24 01:42:40;;;;;;;1.67;1.40;;;19.20;67.20;;;;;;5129043;27;45357;-81
2022/04/24 01:45:08;;;;;;;2.20;1.27;;;19.20;66.50;;;;;;5127635;27;45222;-81
2022/04/24 01:47:35;;;;;;;1.55;1.33;;;19.20;67.00;;;;;;5127977;27;45256;-81
2022/04/24 01:50:01;;;;;;;1.27;1.17;;;19.10;66.10;;;;;;5124323;27;45461;-81
2022/04/24 01:52:28;;;;;;;1.60;1.30;;;19.10;66.10;;;;;;5127103;27;46582;-81
2022/04/24 01:54:56;;;;;;;1.50;1.30;;;19.10;65.90;;;;;;5128332;27;45215;-81
2022/04/24 01:57:23;;;;;;;1.63;1.30;;;19.10;66.10;;;;;;5127101;27;45302;-81
2022/04/24 01:59:50;;;;;;;1.45;1.10;;;19.10;65.30;;;;;;5122385;27;45150;-82
2022/04/24 02:02:17;;;;;;;2.13;1.50;;;19.10;65.20;;;;;;5122274;27;45491;-81
2022/04/24 02:04:44;;;;;;;1.98;1.58;;;19.10;65.50;;;;;;5124043;27;45276;-81
2022/04/24 02:07:11;;;;;;;1.30;1.20;;;19.10;65.60;;;;;;5127198;27;45517;-81
2022/04/24 02:09:39;;;;;;;1.58;1.27;;;19.10;65.10;;;;;;5137347;27;45570;-82
2022/04/24 02:12:08;;;;;;;1.40;1.27;;;19.10;65.60;;;;;;5132334;27;46284;-81
2022/04/24 02:14:35;;;;;;;1.40;1.30;;;19.10;65.60;;;;;;5125013;27;45456;-81
2022/04/24 02:17:02;;;;;;;1.77;1.23;;;19.10;65.60;;;;;;5126996;27;45202;-81
2022/04/24 02:19:28;;;;;;;1.75;1.30;;;19.20;66.00;;;;;;5128126;27;45318;-80
2022/04/24 02:21:55;;;;;;;2.22;1.50;;;19.20;65.60;;;;;;5122654;27;48007;-80
2022/04/24 02:24:22;;;;;;;1.80;1.40;;;19.20;65.70;;;;;;5123096;27;45282;-81
2022/04/24 02:26:49;;;;;;;1.75;1.40;;;19.10;65.60;;;;;;5126069;27;45203;-82
2022/04/24 02:29:17;;;;;;;1.50;1.30;;;19.20;65.20;;;;;;5123621;27;45474;-81
2022/04/24 02:31:43;;;;;;;1.58;1.40;;;19.20;65.40;;;;;;5123285;27;47696;-82
2022/04/24 02:34:10;;;;;;;1.58;1.48;;;19.20;64.90;;;;;;5125147;27;45182;-81
2022/04/24 02:36:37;;;;;;;1.23;1.10;;;19.10;65.00;;;;;;5126822;27;45155;-81
2022/04/24 02:39:04;;;;;;;1.73;1.50;;;19.10;64.70;;;;;;5124614;27;45510;-81
2022/04/24 02:41:31;;;;;;;1.65;1.40;;;19.10;64.50;;;;;;5126787;27;45468;-82
2022/04/24 02:43:58;;;;;;;1.38;1.27;;;19.10;64.70;;;;;;5123502;27;45145;-81
2022/04/24 02:46:26;;;;;;;1.48;1.30;;;19.10;64.60;;;;;;5125183;27;45171;-82
2022/04/24 02:48:53;;;;;;;1.58;1.20;;;19.10;64.60;;;;;;5122134;27;45677;-81
2022/04/24 02:51:20;;;;;;;1.88;1.58;;;19.10;64.20;;;;;;5127131;27;47055;-82
2022/04/24 02:53:47;;;;;;;1.83;1.38;;;19.10;64.30;;;;;;5123948;27;45694;-81
2022/04/24 02:56:14;;;;;;;1.90;1.67;;;19.10;63.60;;;;;;5124964;27;45543;-81
2022/04/24 02:58:44;;;;;;;2.13;1.30;;;19.10;64.50;;;;;;5127056;27;45197;-81
2022/04/24 03:01:11;;;;;;;1.50;1.30;;;19.10;64.70;;;;;;5127467;27;47169;-82
2022/04/24 03:03:42;;;;;;;1.73;1.42;;;19.10;64.60;;;;;;5125664;27;45181;-81
2022/04/24 03:06:09;;;;;;;1.88;1.60;;;19.10;64.20;;;;;;5123465;27;45300;-81
2022/04/24 03:08:36;;;;;;;1.33;1.20;;;19.10;64.60;;;;;;5122354;27;45222;-81
2022/04/24 03:11:03;;;;;;;1.70;1.38;;;19.10;64.10;;;;;;5124079;27;45522;-81
2022/04/24 03:13:30;;;;;;;2.13;1.50;;;19.10;64.30;;;;;;5126960;27;45342;-81
2022/04/24 03:15:57;;;;;;;1.60;1.50;;;19.10;64.20;;;;;;5122173;27;45415;-81
2022/04/24 03:18:23;;;;;;;1.50;1.40;;;19.10;64.20;;;;;;5127212;27;45398;-81
2022/04/24 03:20:52;;;;;;;1.85;1.58;;;19.10;64.00;;;;;;5126542;27;46649;-81
2022/04/24 03:23:18;;;;;;;1.88;1.55;;;19.10;63.80;;;;;;5125983;27;45314;-81
2022/04/24 03:25:45;;;;;;;1.75;1.30;;;19.10;63.60;;;;;;5118481;27;45261;-81
2022/04/24 03:28:13;;;;;;;1.77;1.50;;;19.10;63.30;;;;;;5129180;27;45332;-81
2022/04/24 03:30:40;;;;;;;1.67;1.33;;;19.10;63.70;;;;;;5130079;27;46198;-81
2022/04/24 03:33:07;;;;;;;2.30;1.45;;;19.10;63.80;;;;;;5126083;27;45296;-81
2022/04/24 03:35:34;;;;;;;1.60;1.48;;;19.10;63.60;;;;;;5129035;27;45161;-81
2022/04/24 03:38:02;;;;;;;2.03;1.60;;;19.10;63.40;;;;;;5131200;27;45349;-82
2022/04/24 03:40:29;;;;;;;1.90;1.55;;;19.10;63.20;;;;;;5128216;27;46211;-81
2022/04/24 03:42:56;;;;;;;2.03;1.50;;;19.10;62.90;;;;;;5125965;27;45238;-81
2022/04/24 03:45:23;;;;;;;2.00;1.40;;;19.10;63.30;;;;;;5123457;27;46948;-81
2022/04/24 03:47:51;;;;;;;1.80;1.55;;;18.90;63.20;;;;;;5130087;27;45439;-81
2022/04/24 03:50:20;;;;;;;1.58;1.40;;;19.10;63.30;;;;;;5129832;27;46168;-81
2022/04/24 03:52:47;;;;;;;1.92;1.55;;;19.10;63.30;;;;;;5128956;27;45282;-81
2022/04/24 03:55:15;;;;;;;1.55;1.45;;;19.10;63.10;;;;;;5129408;27;45255;-81
2022/04/24 03:57:42;;;;;;;1.63;1.42;;;19.10;63.00;;;;;;5128560;27;45213;-81
2022/04/24 04:00:09;;;;;;;1.95;1.60;;;19.10;62.70;;;;;;5126820;27;46595;-81
2022/04/24 04:02:43;;;;;;;1.42;1.33;;;19.10;63.00;;;;;;5128064;27;45153;-81
2022/04/24 04:05:10;;;;;;;1.95;1.80;;;19.10;62.70;;;;;;5123467;27;45521;-81
2022/04/24 04:07:37;;;;;;;1.75;1.60;;;19.10;62.30;;;;;;5121811;27;45418;-81
2022/04/24 04:10:04;;;;;;;1.73;1.60;;;19.10;63.40;;;;;;5126642;27;47394;-81
2022/04/24 04:12:32;;;;;;;1.40;1.30;;;19.10;62.40;;;;;;5129909;27;45246;-81
2022/04/24 04:15:02;;;;;;;1.42;1.33;;;19.10;62.00;;;;;;5127156;27;45244;-81
2022/04/24 04:17:29;;;;;;;1.90;1.60;;;19.10;62.10;;;;;;5129778;27;45206;-80
2022/04/24 04:19:55;;;;;;;1.77;1.58;;;18.90;61.70;;;;;;5122093;27;47078;-81
2022/04/24 04:22:23;;;;;;;2.00;1.80;;;19.10;62.00;;;;;;5129375;27;45473;-81
2022/04/24 04:24:49;;;;;;;2.25;1.60;;;19.10;61.70;;;;;;5127625;27;45319;-81
2022/04/24 04:27:16;;;;;;;1.80;1.60;;;19.10;61.20;;;;;;5128326;27;45340;-82
2022/04/24 04:29:44;;;;;;;1.90;1.73;;;19.10;61.50;;;;;;5126482;27;46258;-81
2022/04/24 04:32:11;;;;;;;1.70;1.60;;;19.10;61.70;;;;;;5126833;27;45492;-81
2022/04/24 04:34:38;;;;;;;1.60;1.50;;;19.10;61.70;;;;;;5128952;27;45430;-81
2022/04/24 04:37:05;;;;;;;1.85;1.63;;;19.10;61.80;;;;;;5130758;27;45539;-82
2022/04/24 04:39:32;;;;;;;2.22;1.63;;;19.10;61.70;;;;;;5127309;27;47418;-81
2022/04/24 04:41:59;;;;;;;1.75;1.50;;;19.10;61.30;;;;;;5121003;27;45310;-81
2022/04/24 04:44:26;;;;;;;3.33;1.75;;;19.10;61.70;;;;;;5130020;27;45124;-81
2022/04/24 04:46:54;;;;;;;1.73;1.58;;;19.10;61.60;;;;;;5117642;27;45173;-82
2022/04/24 04:49:21;;;;;;;1.80;1.52;;;19.10;61.90;;;;;;5119305;27;48453;-81
2022/04/24 04:51:47;;;;;;;2.47;1.98;;;19.10;61.40;;;;;;5130537;27;45221;-82
2022/04/24 04:54:14;;;;;;;1.55;1.38;;;19.10;61.40;;;;;;5128907;27;45314;-81
2022/04/24 04:56:41;;;;;;;2.17;1.80;;;19.10;60.90;;;;;;5117860;27;45370;-82
2022/04/24 04:59:08;;;;;;;3.00;1.70;;;19.10;60.90;;;;;;5120536;27;46464;-82
2022/04/24 05:01:34;;;;;;;2.05;1.85;;;19.10;60.50;;;;;;5126421;27;45404;-81
2022/04/24 05:04:03;;;;;;;1.75;1.60;;;19.10;60.70;;;;;;5125995;27;45660;-81
2022/04/24 05:06:29;;;;;;;1.92;1.60;;;19.10;60.30;;;;;;5127744;27;45240;-81
2022/04/24 05:08:56;;;;;;;1.63;1.52;;;19.10;59.40;;;;;;5128106;27;45319;-82
2022/04/24 05:11:23;;;;;;;2.40;2.15;;;19.10;60.20;;;;;;5127868;27;45100;-81
2022/04/24 05:13:50;;;;;;;2.17;1.60;;;19.10;60.40;;;;;;5129175;27;45287;-81
2022/04/24 05:16:17;;;;;;;2.55;1.95;;;19.10;60.10;;;;;;5126731;27;45448;-81
2022/04/24 05:18:43;;;;;;;2.00;1.80;;;19.10;61.00;;;;;;5128135;27;47407;-81
2022/04/24 05:21:11;;;;;;;1.70;1.60;;;19.10;61.30;;;;;;5128199;27;46026;-81
2022/04/24 05:23:40;;;;;;;2.55;1.80;;;19.10;61.30;;;;;;5128218;27;45216;-81
2022/04/24 05:26:07;;;;;;;2.17;1.77;;;19.10;60.70;;;;;;5127686;27;45266;-81
2022/04/24 05:28:34;;;;;;;2.00;1.58;;;19.10;62.20;;;;;;5121477;27;46285;-81
2022/04/24 05:31:01;;;;;;;2.00;1.70;;;19.10;60.90;;;;;;5127127;27;45528;-81
2022/04/24 05:33:28;;;;;;;2.45;1.73;;;19.10;60.90;;;;;;5122392;27;45701;-81
2022/04/24 05:35:55;;;;;;;2.22;1.92;;;19.10;61.00;;;;;;5128929;27;45379;-81
2022/04/24 05:38:23;;;;;;;2.00;1.80;;;19.10;60.30;;;;;;5128553;27;48365;-82
2022/04/24 05:40:50;;;;;;;2.25;1.85;;;19.10;60.40;;;;;;5127157;27;46272;-81
2022/04/24 05:43:16;;;;;;;2.90;2.10;;;19.10;60.60;;;;;;5122004;27;45485;-82
2022/04/24 05:45:43;;;;;;;2.17;1.90;;;19.10;60.50;;;;;;5123172;27;45165;-82
2022/04/24 05:48:10;;;;;;;2.13;1.92;;;19.10;60.10;;;;;;5126067;27;47332;-81
2022/04/24 05:50:37;;;;;;;2.22;1.85;;;19.10;60.30;;;;;;5128130;27;45194;-81
2022/04/24 05:53:04;;;;;;;2.00;1.77;;;19.10;60.30;;;;;;5126155;27;45494;-81
2022/04/24 05:55:32;;;;;;;2.22;1.85;;;19.10;60.10;;;;;;5129615;27;45085;-82
2022/04/24 05:57:59;;;;;;;1.90;1.65;;;19.10;59.80;;;;;;5127036;27;47122;-81
2022/04/24 06:00:26;;;;;;;2.20;2.00;;;19.10;59.80;;;;;;5124727;27;45241;-81
2022/04/24 06:02:53;;;;;;;2.22;1.83;;;19.10;59.90;;;;;;5126456;27;45202;-81
2022/04/24 06:05:20;;;;;;;2.10;1.90;;;19.10;60.20;;;;;;5118185;27;45143;-81
2022/04/24 06:07:46;;;;;;;2.05;1.83;;;19.10;60.20;;;;;;5118931;27;45323;-82
2022/04/24 06:10:13;;;;;;;1.67;1.58;;;19.10;60.10;;;;;;5117514;27;45273;-82
2022/04/24 06:12:49;;;;;;;2.28;2.05;;;19.10;60.10;;;;;;5127746;27;45323;-82
2022/04/24 06:15:17;;;;;;;1.92;1.73;;;19.10;60.50;;;;;;5126024;27;45573;-82
2022/04/24 06:17:46;;;;;;;2.20;1.80;;;19.10;60.60;;;;;;5127173;27;46924;-82
2022/04/24 06:20:13;;;;;;;2.72;1.67;;;19.10;60.40;;;;;;5121375;27;45383;-81
2022/04/24 06:22:44;;;;;;;2.00;1.70;;;19.10;60.60;;;;;;5127552;27;45729;-81
2022/04/24 06:25:16;;;;;;;2.28;1.98;;;19.10;60.30;;;;;;5121310;27;45386;-82
2022/04/24 06:27:42;;;;;;;1.98;1.77;;;19.10;60.00;;;;;;5122344;27;45519;-82
2022/04/24 06:30:12;;;;;;;2.08;1.88;;;19.10;59.90;;;;;;5119022;27;45257;-82
2022/04/24 06:32:39;;;;;;;2.28;2.00;;;19.10;59.70;;;;;;5124506;27;45245;-82
2022/04/24 06:35:09;;;;;;;2.38;2.15;;;19.10;60.00;;;;;;5124813;27;45238;-81
2022/04/24 06:37:36;;;;;;;2.63;2.10;;;19.10;59.90;;;;;;5120450;27;47209;-82
2022/04/24 06:40:03;;;;;;;2.22;1.90;;;19.10;60.00;;;;;;5127417;27;45168;-81
2022/04/24 06:42:30;;;;;;;3.88;2.10;;;19.10;59.50;;;;;;5127847;27;45249;-81
2022/04/24 06:44:57;;;;;;;2.30;1.90;;;19.10;59.60;;;;;;5126203;27;45440;-81
2022/04/24 06:47:27;;;;;;;3.03;2.20;;;19.10;59.40;;;;;;5125751;27;47071;-81
2022/04/24 06:49:54;;;;;;;2.28;2.08;;;19.10;59.20;;;;;;5133622;27;45751;-81
2022/04/24 06:52:21;;;;;;;2.03;1.83;;;19.10;59.20;;;;;;5127718;27;45267;-82
2022/04/24 06:54:48;;;;;;;2.25;2.05;;;19.10;59.50;;;;;;5126469;27;45184;-82
2022/04/24 06:57:15;;;;;;;2.53;2.20;;;19.10;59.20;;;;;;5126581;27;47510;-82
2022/04/24 06:59:42;;;;;;;2.20;1.90;;;19.10;59.10;;;;;;5115066;27;45545;-82
2022/04/24 07:02:08;;;;;;;2.55;1.88;;;19.10;59.10;;;;;;5117040;27;45352;-82
2022/04/24 07:04:37;;;;;;;2.15;1.85;;;19.10;58.90;;;;;;5126105;27;45424;-82
2022/04/24 07:07:04;;;;;;;2.25;1.95;;;19.10;58.80;;;;;;5123360;27;45461;-82
2022/04/24 07:09:31;;;;;;;2.30;1.60;;;19.10;58.90;;;;;;5123002;27;45242;-82
2022/04/24 07:11:58;;;;;;;2.92;2.00;;;19.10;58.50;;;;;;5130460;27;45505;-82
2022/04/24 07:14:25;;;;;;;2.30;2.00;;;19.10;58.10;;;;;;5129647;27;45246;-82
2022/04/24 07:16:51;;;;;;;2.38;2.13;;;19.10;58.60;;;;;;5129098;27;46925;-82
2022/04/24 07:19:18;;;;;;;2.97;1.95;;;19.10;58.60;;;;;;5125114;27;45379;-82
2022/04/24 07:21:48;;;;;;;2.20;1.98;;;19.10;58.40;;;;;;5123958;27;45627;-82
2022/04/24 07:24:15;;;;;;;2.17;1.83;;;19.10;58.50;;;;;;5123532;27;45405;-82
2022/04/24 07:26:41;;;;;;;3.10;1.95;;;19.10;58.20;;;;;;5137506;27;46516;-82
2022/04/24 07:29:09;;;;;;;2.38;1.90;;;19.10;58.30;;;;;;5129525;27;45278;-81
2022/04/24 07:31:35;;;;;;;2.97;2.33;;;19.10;58.20;;;;;;5121950;27;45402;-82
2022/04/24 07:34:02;;;;;;;2.60;2.08;;;19.10;58.00;;;;;;5124997;27;45153;-81
2022/04/24 07:36:29;;;;;;;2.03;1.83;;;19.10;58.00;;;;;;5124869;27;46221;-82
2022/04/24 07:38:57;;;;;;;2.72;2.10;;;19.10;58.10;;;;;;5128766;27;45315;-82
2022/04/24 07:41:25;;;;;;;2.55;2.10;;;19.10;58.20;;;;;;5117914;27;45304;-82
2022/04/24 07:43:52;;;;;;;2.63;2.00;;;19.10;58.00;;;;;;5119287;27;45246;-82
2022/04/24 07:46:19;;;;;;;2.53;1.92;;;19.10;59.00;;;;;;5126740;27;46537;-82
2022/04/24 07:48:46;;;;;;;3.00;2.20;;;19.20;57.70;;;;;;5123476;27;45316;-82
2022/04/24 07:51:12;;;;;;;3.38;1.90;;;19.20;57.50;;;;;;5123262;27;45356;-82
2022/04/24 07:53:42;;;;;;;3.03;1.98;;;19.20;57.70;;;;;;5120923;27;45626;-82
2022/04/24 07:56:10;;;;;;;2.28;2.08;;;19.20;57.00;;;;;;5114890;27;45484;-82
2022/04/24 07:58:37;;;;;;;2.65;2.20;;;19.20;57.00;;;;;;5122259;27;45349;-82
2022/04/24 08:01:04;;;;;;;2.58;1.80;;;19.20;57.00;;;;;;5126308;27;46154;-82
2022/04/24 08:03:31;;;;;;;3.38;2.30;;;19.20;57.10;;;;;;5127459;27;45335;-82
2022/04/24 08:05:58;;;;;;;2.42;1.85;;;19.20;57.40;;;;;;5126416;27;47465;-82
2022/04/24 08:08:25;;;;;;;2.50;1.90;;;19.20;57.40;;;;;;5121843;27;45655;-82
2022/04/24 08:10:54;;;;;;;2.85;1.88;;;19.10;57.70;;;;;;5118502;27;45327;-82
2022/04/24 08:13:24;;;;;;;2.67;2.03;;;19.10;57.80;;;;;;5125982;27;45148;-82
2022/04/24 08:15:52;;;;;;;2.35;2.00;;;19.10;57.90;;;;;;5129170;27;47070;-82
2022/04/24 08:18:19;;;;;;;2.40;1.80;;;19.10;57.80;;;;;;5127634;27;45155;-82
2022/04/24 08:20:47;;;;;;;2.67;2.30;;;19.10;58.00;;;;;;5124631;27;45228;-82
2022/04/24 08:23:16;;;;;;;2.58;1.92;;;19.10;57.70;;;;;;5121202;27;45442;-82
2022/04/24 08:25:43;;;;;;;2.33;2.00;;;19.10;58.20;;;;;;5120705;27;46290;-82
2022/04/24 08:28:11;;;;;;;2.47;1.95;;;19.10;58.10;;;;;;5128254;27;45655;-82
2022/04/24 08:30:41;;;;;;;2.35;2.08;;;19.10;57.50;;;;;;5127858;27;45210;-82
2022/04/24 08:33:08;;;;;;;2.23;1.80;;;19.10;57.50;;;;;;5122431;27;45340;-83
2022/04/24 08:35:35;;;;;;;2.83;2.25;;;19.10;57.20;;;;;;5128565;27;46899;-82
2022/04/24 08:38:02;;;;;;;2.25;2.05;;;19.20;58.50;;;;;;5122762;27;45192;-82
2022/04/24 08:40:29;;;;;;;2.53;2.00;;;19.20;57.50;;;;;;5127552;27;45259;-82
2022/04/24 08:42:56;;;;;;;2.97;2.20;;;19.20;57.00;;;;;;5121272;27;45577;-82
2022/04/24 08:45:26;;;;;;;2.28;1.90;;;19.20;56.60;;;;;;5120072;27;46180;-82
2022/04/24 08:47:57;;;;;;;3.33;2.15;;;19.20;56.20;;;;;;5125424;27;45332;-82
2022/04/24 08:50:27;;;;;;;4.90;2.15;;;19.20;56.60;;;;;;5122361;27;45295;-82
2022/04/24 08:52:56;;;;;;;1.95;1.75;;;19.20;56.50;;;;;;5122933;27;45667;-82
2022/04/24 08:55:25;;;;;;;2.00;1.80;;;19.20;56.40;;;;;;5123079;27;46450;-82
2022/04/24 08:57:51;;;;;;;2.33;2.03;;;19.20;56.10;;;;;;5123492;27;45310;-82
2022/04/24 09:00:19;;;;;;;2.40;2.20;;;19.20;56.00;;;;;;5126640;27;45772;-82
2022/04/24 09:02:47;;;;;;;2.55;2.05;;;19.20;56.20;;;;;;5123782;27;45164;-82
2022/04/24 09:05:16;;;;;;;2.40;2.00;;;19.20;56.60;;;;;;5129332;27;45330;-82
2022/04/24 09:07:45;;;;;;;2.58;1.92;;;19.20;56.40;;;;;;5133149;27;45310;-81
2022/04/24 09:10:12;;;;;;;2.55;2.05;;;19.20;56.60;;;;;;5133219;27;45373;-82
2022/04/24 09:12:40;;;;;;;2.42;2.00;;;19.20;56.90;;;;;;5128759;27;45261;-82
2022/04/24 09:15:08;;;;;;;2.60;1.90;;;19.20;57.00;;;;;;5125063;27;45307;-82
2022/04/24 09:17:36;;;;;;;2.60;1.98;;;19.10;57.00;;;;;;5124268;27;45372;-82
2022/04/24 09:20:18;;;;;;;1.98;1.70;;;19.20;57.60;;;;;;5127026;27;45307;-81
2022/04/24 09:22:46;;;;;;;2.40;1.73;;;19.10;57.30;;;;;;5125846;27;45247;-81
2022/04/24 09:25:13;;;;;;;2.15;1.83;;;19.10;57.40;;;;;;5117501;27;47610;-84
2022/04/24 09:27:41;;;;;;;2.85;1.75;;;19.10;57.40;;;;;;5126374;27;45237;-82
2022/04/24 09:30:12;;;;;;;1.90;1.70;;;19.20;58.00;;;;;;5125619;27;45335;-82
2022/04/24 09:32:47;;;;;;;3.60;2.20;;;19.20;58.00;;;;;;5118892;27;45259;-83
2022/04/24 09:35:26;;;;;;;4.82;1.88;;;19.20;58.40;;;;;;5128970;27;45495;-81
2022/04/24 09:37:53;;;;;;;2.83;1.90;;;19.20;57.80;;;;;;5126918;27;45279;-86
2022/04/24 09:40:20;;;;;;;2.72;1.90;;;19.30;58.40;;;;;;5124416;27;45451;-85
2022/04/24 09:42:54;;;;;;;1.95;1.70;;;19.30;60.00;;;;;;5122068;27;45341;-86
2022/04/24 09:45:25;;;;;;;2.30;2.10;;;19.30;59.90;;;;;;5119571;27;46466;-81
2022/04/24 09:47:59;;;;;;;2.72;2.22;;;19.30;59.40;;;;;;5126718;27;45335;-81
2022/04/24 09:50:30;;;;;;;3.35;2.05;;;19.30;58.80;;;;;;5121142;27;45489;-82
2022/04/24 09:52:58;;;;;;;3.10;2.20;;;19.30;58.20;;;;;;5122742;27;45194;-82
2022/04/24 09:55:26;;;;;;;2.88;2.08;;;19.30;57.80;;;;;;5129483;27;45615;-80
2022/04/24 09:57:55;;;;;;;3.40;2.40;;;19.30;57.70;;;;;;5125998;27;45505;-79
2022/04/24 10:00:22;;;;;;;3.75;2.20;;;19.30;57.70;;;;;;5116517;27;45237;-81
2022/04/24 10:02:51;;;;;;;2.67;2.20;;;19.30;57.70;;;;;;5121771;27;45483;-82
2022/04/24 10:05:18;;;;;;;3.20;2.10;;;19.30;57.70;;;;;;5128671;27;46488;-80
2022/04/24 10:07:47;;;;;;;2.70;1.98;;;19.30;57.20;;;;;;5121882;27;45277;-83
2022/04/24 10:10:15;;;;;;;3.22;2.20;;;19.30;57.10;;;;;;5121007;27;45559;-83
2022/04/24 10:12:46;;;;;;;3.08;2.28;;;19.30;57.00;;;;;;5132095;27;45291;-83
2022/04/24 10:15:16;;;;;;;3.27;2.40;;;19.30;57.30;;;;;;5124673;27;47223;-83
2022/04/24 10:18:17;;;;;;;3.25;2.30;;;19.30;57.00;;;;;;5116056;27;46265;-82
2022/04/24 10:20:53;;;;;;;4.85;2.10;;;19.30;57.00;;;;;;5096933;27;45584;-82
2022/04/24 10:23:30;;;;;;;2.00;1.80;;;19.30;57.20;;;;;;5117069;27;45246;-81
2022/04/24 10:25:57;;;;;;;5.43;2.30;;;19.30;57.30;;;;;;5118295;27;46438;-81
2022/04/24 10:28:24;;;;;;;2.88;2.17;;;19.30;57.00;;;;;;5120008;27;45357;-83
2022/04/24 10:31:01;;;;;;;2.92;2.40;;;19.30;58.50;;;;;;5126352;27;45222;-84
2022/04/24 10:33:30;;;;;;;2.10;1.70;;;19.30;57.30;;;;;;5118379;27;45347;-82
2022/04/24 10:35:59;;;;;;;3.15;2.47;;;19.30;57.80;;;;;;5120419;27;47179;-83
2022/04/24 10:38:27;;;;;;;3.75;2.33;;;19.30;57.80;;;;;;5128746;27;45245;-84
2022/04/24 10:41:04;;;;;;;3.47;2.22;;;19.30;57.90;;;;;;5130434;27;45888;-84
2022/04/24 10:43:38;;;;;;;3.40;2.20;;;19.30;57.70;;;;;;5126560;27;45395;-83
2022/04/24 10:46:19;;;;;;;3.35;2.38;;;19.40;58.10;;;;;;5131160;27;48236;-83
2022/04/24 10:48:48;;;;;;;3.15;2.10;;;19.40;57.70;;;;;;5130966;27;45193;-84
2022/04/24 10:51:27;;;;;;;2.47;2.15;;;19.40;57.80;;;;;;5125158;27;45261;-83
2022/04/24 10:53:57;;;;;;;2.22;1.88;;;19.40;57.90;;;;;;5131452;27;45424;-83
2022/04/24 10:56:25;;;;;;;2.33;2.03;;;19.40;57.70;;;;;;5123303;27;48411;-83
2022/04/24 10:58:52;;;;;;;2.35;1.77;;;19.40;57.70;;;;;;5130383;27;45296;-83
2022/04/24 11:01:19;;;;;;;3.35;2.60;;;19.40;57.70;;;;;;5127410;27;45213;-84
2022/04/24 11:03:47;;;;;;;3.45;2.15;;;19.40;57.70;;;;;;5129123;27;45377;-84
2022/04/24 11:06:19;;;;;;;2.60;1.98;;;19.40;57.60;;;;;;5124248;27;45206;-84
2022/04/24 11:08:46;;;;;;;5.65;2.10;;;19.40;57.50;;;;;;5128628;27;45527;-84
2022/04/24 11:11:14;;;;;;;2.30;1.80;;;19.40;57.10;;;;;;5119492;27;45655;-84
2022/04/24 11:13:43;;;;;;;2.78;1.92;;;19.30;57.70;;;;;;5123190;27;45458;-84
2022/04/24 11:16:11;;;;;;;4.80;1.77;;;19.30;57.10;;;;;;5120210;27;46387;-83
2022/04/24 11:18:39;;;;;;;2.35;1.95;;;19.30;57.20;;;;;;5131146;27;45214;-84
2022/04/24 11:21:06;;;;;;;2.45;2.08;;;19.30;57.20;;;;;;5130806;27;45318;-84
2022/04/24 11:23:35;;;;;;;2.53;1.90;;;19.30;56.90;;;;;;5130131;27;45287;-83
2022/04/24 11:26:05;;;;;;;3.50;2.28;;;19.30;57.00;;;;;;5141448;27;46368;-83
2022/04/24 11:28:40;;;;;;;2.47;1.98;;;19.30;57.10;;;;;;5126188;27;45538;-83
2022/04/24 11:31:14;;;;;;;2.38;1.92;;;19.30;57.00;;;;;;5128049;27;45277;-83
2022/04/24 11:33:52;;;;;;;3.10;2.13;;;19.30;57.30;;;;;;5127360;27;45360;-83
2022/04/24 11:36:20;;;;;;;2.38;1.90;;;19.30;57.30;;;;;;5130485;27;45759;-83
2022/04/24 11:38:47;;;;;;;4.72;2.47;;;19.30;57.10;;;;;;5119940;27;45264;-83
2022/04/24 11:41:14;;;;;;;3.28;2.13;;;19.40;57.20;;;;;;5122789;27;45277;-83
2022/04/24 11:43:42;;;;;;;2.75;1.70;;;19.40;57.10;;;;;;5119422;27;45477;-82
2022/04/24 11:51:39;;;;;;;2.30;1.88;;;19.40;56.90;;;;;;5123644;27;45265;-83
2022/04/24 11:54:07;;;;;;;2.67;2.05;;;19.40;56.70;;;;;;5129233;27;45471;-83
2022/04/24 11:56:36;;;;;;;3.05;2.00;;;19.40;56.60;;;;;;5127397;27;46961;-83
2022/04/24 11:59:14;;;;;;;2.22;2.00;;;19.40;56.60;;;;;;5127845;27;46647;-83
2022/04/24 12:01:44;;;;;;;1.92;1.73;;;19.40;56.70;;;;;;5117069;27;45513;-83
2022/04/24 12:04:17;;;;;;;3.88;2.10;;;19.30;56.40;;;;;;5121144;27;45371;-83
2022/04/24 12:06:44;;;;;;;3.05;2.20;;;19.30;56.30;;;;;;5120062;27;46463;-82
2022/04/24 12:09:11;;;;;;;1.92;1.73;;;19.30;55.90;;;;;;5127031;27;45275;-83
2022/04/24 12:11:38;;;;;;;2.47;1.92;;;19.30;56.20;;;;;;5125269;27;45479;-82
2022/04/24 12:14:10;;;;;;;2.47;1.85;;;19.30;56.00;;;;;;5127192;27;45157;-83
2022/04/24 12:16:38;;;;;;;2.20;1.88;;;19.30;55.80;;;;;;5127205;27;46413;-83
2022/04/24 12:19:06;;;;;;;2.40;2.00;;;19.30;55.60;;;;;;5130063;27;45824;-83
2022/04/24 12:21:45;;;;;;;2.10;1.90;;;19.30;55.40;;;;;;5126101;27;45406;-83
2022/04/24 12:24:12;;;;;;;3.13;2.00;;;19.30;55.60;;;;;;5130360;27;45201;-83
2022/04/24 12:26:47;;;;;;;2.38;1.88;;;19.30;55.80;;;;;;5121647;27;46553;-83
2022/04/24 12:29:15;;;;;;;5.00;2.03;;;19.30;55.50;;;;;;5125335;27;47023;-83
2022/04/24 12:31:42;;;;;;;3.35;2.00;;;19.30;55.80;;;;;;5125966;27;45166;-83
2022/04/24 12:34:11;;;;;;;2.47;2.17;;;19.30;56.20;;;;;;5126934;27;45545;-83
2022/04/24 12:36:48;;;;;;;2.28;1.98;;;19.30;56.20;;;;;;5128543;27;45408;-82
2022/04/24 12:39:15;;;;;;;2.28;1.80;;;19.30;57.20;;;;;;5127505;27;45326;-83
2022/04/24 12:41:42;;;;;;;1.60;1.50;;;19.30;56.00;;;;;;5115949;27;45295;-83
2022/04/24 12:44:09;;;;;;;2.20;1.73;;;19.30;56.10;;;;;;5118759;27;45321;-83
2022/04/24 12:46:36;;;;;;;2.67;2.00;;;19.30;56.00;;;;;;5128575;27;45231;-83
2022/04/24 12:49:04;;;;;;;2.38;1.83;;;19.40;56.00;;;;;;5127249;27;45288;-82
2022/04/24 12:51:32;;;;;;;2.58;2.00;;;19.30;56.00;;;;;;5121910;27;45281;-83
2022/04/24 12:54:02;;;;;;;1.73;1.63;;;19.30;56.00;;;;;;5126231;27;45438;-83
2022/04/24 12:56:29;;;;;;;2.33;1.95;;;19.30;56.00;;;;;;5125983;27;48000;-83
2022/04/24 12:58:58;;;;;;;2.70;1.85;;;19.30;55.90;;;;;;5119081;27;45658;-83